Time;durP1;ratioP1;P1;durP2;ratioP2;P2;SDS_P1;SDS_P2;PMS_P1;PMS_P2;Temp;Humidity;BMP_temperature;BMP_pressure;BME280_temperature;BME280_humidity;BME280_pressure;Samples;Min_cycle;Max_cycle;Signal;HPM_P1;HPM_P2
2021/06/10 00:02:14;;;;;;;14.20;12.80;;;22.90;86.50;;;;;;5030200;28;20627;-49
2021/06/10 00:04:41;;;;;;;14.67;13.47;;;22.90;86.60;;;;;;5038578;28;20711;-50
2021/06/10 00:07:08;;;;;;;13.63;12.67;;;22.90;86.60;;;;;;5050209;28;20755;-50
2021/06/10 00:09:35;;;;;;;15.00;13.70;;;22.90;86.90;;;;;;5049873;28;20630;-50
2021/06/10 00:12:02;;;;;;;15.03;13.77;;;22.90;87.20;;;;;;5031792;28;20627;-50
2021/06/10 00:14:30;;;;;;;14.17;12.97;;;22.90;87.30;;;;;;5029984;28;21196;-50
2021/06/10 00:16:57;;;;;;;13.70;12.60;;;22.80;87.50;;;;;;5029469;28;20677;-49
2021/06/10 00:19:23;;;;;;;14.10;12.93;;;22.80;88.80;;;;;;5030294;28;20627;-49
2021/06/10 00:21:50;;;;;;;12.90;11.90;;;22.80;88.20;;;;;;5029770;28;20667;-49
2021/06/10 00:24:17;;;;;;;12.33;11.43;;;22.80;88.20;;;;;;5013165;28;20705;-49
2021/06/10 00:26:43;;;;;;;13.93;12.67;;;22.80;88.30;;;;;;5010221;28;20628;-48
2021/06/10 00:29:10;;;;;;;13.07;12.13;;;22.80;88.50;;;;;;5010307;28;20698;-50
2021/06/10 00:31:38;;;;;;;14.07;12.77;;;22.80;89.40;;;;;;5011066;28;20623;-50
2021/06/10 00:34:05;;;;;;;14.50;13.30;;;22.70;90.20;;;;;;5010254;28;20660;-50
2021/06/10 00:36:32;;;;;;;14.37;13.17;;;22.70;90.40;;;;;;5009932;28;20717;-49
2021/06/10 00:38:58;;;;;;;14.70;13.47;;;22.70;90.40;;;;;;5034134;28;21154;-49
2021/06/10 00:41:28;;;;;;;15.10;13.90;;;22.70;90.50;;;;;;5032009;28;20778;-51
2021/06/10 00:43:54;;;;;;;12.90;11.90;;;22.60;90.50;;;;;;5031030;28;88408;-51
2021/06/10 00:46:21;;;;;;;13.30;12.30;;;22.60;90.70;;;;;;5049887;28;21309;-50
2021/06/10 00:48:49;;;;;;;12.80;11.80;;;22.60;90.80;;;;;;5010987;28;21193;-50
2021/06/10 00:51:16;;;;;;;14.47;13.37;;;22.50;91.10;;;;;;5026362;28;20643;-50
2021/06/10 00:53:43;;;;;;;13.67;12.67;;;22.50;91.30;;;;;;5030565;28;20627;-49
2021/06/10 00:56:11;;;;;;;14.20;12.83;;;22.50;91.40;;;;;;5030842;28;20658;-50
2021/06/10 00:58:38;;;;;;;15.47;13.93;;;22.40;91.50;;;;;;5030553;28;20627;-50
2021/06/10 01:01:05;;;;;;;16.10;14.70;;;22.40;91.70;;;;;;5030693;28;21014;-50
2021/06/10 01:03:31;;;;;;;15.33;13.73;;;22.40;91.80;;;;;;5030745;28;20689;-50
2021/06/10 01:06:01;;;;;;;16.70;14.70;;;22.40;91.80;;;;;;5030291;28;21100;-50
2021/06/10 01:08:34;;;;;;;14.73;13.07;;;22.30;91.90;;;;;;5030693;28;20627;-50
2021/06/10 01:11:12;;;;;;;14.50;13.40;;;22.20;92.10;;;;;;5030497;28;20631;-50
2021/06/10 01:13:44;;;;;;;13.87;12.53;;;22.20;92.60;;;;;;5030410;28;20703;-50
2021/06/10 01:16:11;;;;;;;13.60;12.50;;;22.20;92.70;;;;;;5029993;28;20635;-49
2021/06/10 01:18:37;;;;;;;14.30;13.20;;;22.10;92.90;;;;;;5030367;28;20638;-50
2021/06/10 01:21:06;;;;;;;14.03;12.90;;;22.10;93.00;;;;;;5030611;28;20908;-50
2021/06/10 01:23:38;;;;;;;12.73;11.83;;;22.10;93.20;;;;;;5030298;28;20623;-50
2021/06/10 01:26:24;;;;;;;15.33;14.13;;;22.10;93.20;;;;;;5030337;28;21212;-50
2021/06/10 01:28:52;;;;;;;13.87;12.87;;;22.10;93.30;;;;;;5029834;28;20630;-49
2021/06/10 01:31:19;;;;;;;14.30;13.00;;;22.10;93.40;;;;;;5030541;28;21050;-50
2021/06/10 01:33:47;;;;;;;13.33;12.30;;;22.00;93.50;;;;;;5030076;28;20631;-50
2021/06/10 01:36:15;;;;;;;15.13;13.83;;;22.00;93.60;;;;;;5030431;28;20631;-50
2021/06/10 01:38:44;;;;;;;15.60;14.40;;;22.00;93.50;;;;;;5030169;28;20623;-50
2021/06/10 01:41:10;;;;;;;13.83;12.77;;;22.00;93.50;;;;;;5030398;28;21166;-50
2021/06/10 01:43:38;;;;;;;14.80;13.70;;;22.00;93.50;;;;;;5030219;28;21050;-49
2021/06/10 01:46:06;;;;;;;16.67;15.17;;;21.90;93.60;;;;;;5030021;28;20716;-50
2021/06/10 01:48:33;;;;;;;16.73;15.13;;;21.90;93.60;;;;;;5029892;28;20684;-50
2021/06/10 01:51:02;;;;;;;15.33;14.10;;;21.90;93.70;;;;;;5029978;28;20630;-50
2021/06/10 01:53:28;;;;;;;16.93;15.63;;;21.90;93.70;;;;;;5030223;28;21190;-50
2021/06/10 01:55:55;;;;;;;14.63;13.53;;;21.90;93.80;;;;;;5029687;28;20655;-50
2021/06/10 01:58:22;;;;;;;15.90;14.13;;;21.90;93.70;;;;;;5030033;28;20623;-50
2021/06/10 02:00:50;;;;;;;15.77;14.27;;;21.90;93.70;;;;;;5030239;28;20638;-50
2021/06/10 02:03:18;;;;;;;15.33;14.10;;;21.80;93.60;;;;;;5030062;28;21112;-50
2021/06/10 02:05:44;;;;;;;16.23;15.03;;;21.80;93.50;;;;;;5029685;28;20695;-50
2021/06/10 02:08:12;;;;;;;15.00;13.90;;;21.80;93.60;;;;;;5010120;28;20624;-49
2021/06/10 02:10:39;;;;;;;16.80;15.13;;;21.70;93.70;;;;;;5010513;28;20690;-50
2021/06/10 02:13:07;;;;;;;15.17;13.87;;;21.70;93.80;;;;;;5018030;28;20709;-49
2021/06/10 02:15:34;;;;;;;15.53;14.43;;;21.60;93.80;;;;;;5030163;28;20655;-50
2021/06/10 02:18:01;;;;;;;14.87;13.77;;;21.60;93.90;;;;;;5028673;28;20642;-50
2021/06/10 02:20:29;;;;;;;14.80;13.50;;;21.50;94.10;;;;;;5032047;28;20681;-50
2021/06/10 02:22:55;;;;;;;14.67;13.47;;;21.50;94.20;;;;;;5033657;28;21211;-49
2021/06/10 02:25:22;;;;;;;16.27;14.87;;;21.50;94.20;;;;;;5033233;28;20670;-49
2021/06/10 02:27:49;;;;;;;17.27;15.67;;;21.50;94.20;;;;;;5033468;28;21179;-49
2021/06/10 02:30:16;;;;;;;15.07;13.87;;;21.40;94.20;;;;;;5033765;28;20696;-50
2021/06/10 02:32:43;;;;;;;15.47;14.03;;;21.40;94.40;;;;;;5033303;28;20678;-50
2021/06/10 02:35:10;;;;;;;15.50;14.13;;;21.40;94.50;;;;;;5033240;28;21215;-50
2021/06/10 02:37:40;;;;;;;14.33;13.13;;;21.30;94.50;;;;;;5033129;28;20627;-49
2021/06/10 02:40:09;;;;;;;14.83;13.60;;;21.30;94.60;;;;;;5032614;28;20631;-50
2021/06/10 02:42:36;;;;;;;15.07;13.87;;;21.30;94.70;;;;;;5032975;28;21225;-49
2021/06/10 02:45:04;;;;;;;17.90;16.07;;;21.30;94.70;;;;;;5033560;28;20698;-49
2021/06/10 02:47:31;;;;;;;16.07;14.77;;;21.20;94.70;;;;;;5032912;28;20630;-49
2021/06/10 02:49:58;;;;;;;14.73;13.63;;;21.20;94.90;;;;;;5032919;28;20639;-49
2021/06/10 02:52:24;;;;;;;15.63;14.20;;;21.20;95.00;;;;;;5032993;28;20687;-49
2021/06/10 02:54:52;;;;;;;17.23;15.40;;;21.20;95.00;;;;;;5033042;28;20654;-49
2021/06/10 02:57:20;;;;;;;14.73;13.60;;;21.10;94.90;;;;;;5032703;28;21009;-49
2021/06/10 02:59:46;;;;;;;16.50;15.30;;;21.10;95.10;;;;;;5033133;28;20641;-49
2021/06/10 03:02:13;;;;;;;17.33;15.93;;;21.10;95.20;;;;;;5032034;28;20701;-49
2021/06/10 03:04:40;;;;;;;15.70;14.50;;;21.10;95.30;;;;;;5032933;28;20722;-49
2021/06/10 03:07:07;;;;;;;16.30;14.80;;;21.00;95.30;;;;;;5032372;28;20671;-49
2021/06/10 03:09:34;;;;;;;19.10;17.50;;;21.00;95.50;;;;;;5032403;28;20639;-49
2021/06/10 03:12:02;;;;;;;18.47;16.97;;;21.00;95.50;;;;;;5032788;28;20655;-49
2021/06/10 03:14:29;;;;;;;19.07;17.53;;;21.00;95.50;;;;;;5032660;28;20658;-49
2021/06/10 03:16:56;;;;;;;17.50;16.13;;;21.00;95.50;;;;;;5032655;28;20658;-49
2021/06/10 03:19:22;;;;;;;19.70;17.90;;;21.00;95.50;;;;;;5032395;28;20676;-50
2021/06/10 03:21:49;;;;;;;18.63;17.00;;;21.00;95.90;;;;;;5031622;28;20666;-50
2021/06/10 03:24:16;;;;;;;19.17;17.57;;;21.00;95.60;;;;;;5031942;28;20778;-49
2021/06/10 03:26:43;;;;;;;20.37;18.47;;;21.00;95.70;;;;;;5032268;28;20772;-50
2021/06/10 03:29:11;;;;;;;18.07;16.53;;;21.00;95.80;;;;;;5032432;28;20700;-50
2021/06/10 03:31:38;;;;;;;20.60;18.90;;;21.00;95.80;;;;;;5031536;28;20631;-51
2021/06/10 03:34:05;;;;;;;23.37;21.37;;;21.00;95.90;;;;;;5032288;28;20662;-51
2021/06/10 03:36:31;;;;;;;21.80;20.00;;;21.00;95.90;;;;;;5032366;28;21213;-51
2021/06/10 03:38:58;;;;;;;21.37;19.63;;;21.00;95.90;;;;;;5032035;28;20626;-50
2021/06/10 03:41:25;;;;;;;21.20;19.37;;;21.00;96.00;;;;;;5032311;28;20693;-51
2021/06/10 03:43:52;;;;;;;23.23;21.23;;;21.00;96.10;;;;;;5031905;28;21082;-50
2021/06/10 03:46:20;;;;;;;23.13;21.13;;;20.90;96.00;;;;;;5031728;28;20711;-51
2021/06/10 03:48:47;;;;;;;20.63;18.87;;;21.00;96.10;;;;;;5032093;28;20685;-49
2021/06/10 03:51:14;;;;;;;23.03;21.23;;;21.00;96.50;;;;;;5031966;28;21044;-50
2021/06/10 03:53:42;;;;;;;23.07;21.10;;;20.90;96.30;;;;;;5031971;28;20623;-49
2021/06/10 03:56:09;;;;;;;21.20;19.53;;;21.00;96.40;;;;;;5031303;28;20721;-49
2021/06/10 03:58:36;;;;;;;20.13;18.50;;;21.00;96.40;;;;;;5031084;28;20635;-49
2021/06/10 04:01:02;;;;;;;24.33;22.10;;;20.90;96.30;;;;;;5032009;28;20907;-50
2021/06/10 04:03:30;;;;;;;23.33;21.40;;;21.00;96.50;;;;;;5031577;28;21061;-49
2021/06/10 04:05:58;;;;;;;22.50;20.40;;;20.90;96.30;;;;;;5031202;28;21068;-50
2021/06/10 04:08:25;;;;;;;22.47;18.97;;;20.90;96.50;;;;;;5031180;28;20626;-50
2021/06/10 04:10:51;;;;;;;23.17;21.07;;;20.90;96.50;;;;;;5031427;28;20623;-50
2021/06/10 04:13:18;;;;;;;22.30;20.40;;;20.90;96.50;;;;;;5031256;28;20623;-49
2021/06/10 04:15:45;;;;;;;22.27;20.37;;;21.00;96.50;;;;;;5030844;28;20712;-49
2021/06/10 04:18:17;;;;;;;21.70;19.60;;;21.00;96.50;;;;;;5031095;28;20627;-49
2021/06/10 04:20:45;;;;;;;22.67;20.43;;;20.90;96.50;;;;;;5031284;28;20639;-50
2021/06/10 04:23:12;;;;;;;21.27;19.53;;;20.90;96.50;;;;;;5026393;28;20628;-50
2021/06/10 04:25:39;;;;;;;21.80;19.80;;;20.90;96.50;;;;;;5011057;28;20660;-50
2021/06/10 04:28:06;;;;;;;19.80;18.00;;;20.90;96.40;;;;;;5022792;28;20635;-49
2021/06/10 04:30:32;;;;;;;21.07;19.37;;;20.90;96.50;;;;;;5030653;28;20742;-50
2021/06/10 04:32:59;;;;;;;22.07;20.17;;;20.90;96.50;;;;;;5030819;28;20627;-51
2021/06/10 04:35:26;;;;;;;20.10;18.27;;;20.90;96.50;;;;;;5030447;28;20695;-50
2021/06/10 04:37:54;;;;;;;21.40;19.33;;;20.90;96.60;;;;;;5031227;28;21132;-51
2021/06/10 04:40:21;;;;;;;21.87;19.87;;;20.90;96.40;;;;;;5030732;28;20732;-51
2021/06/10 04:42:47;;;;;;;21.73;19.63;;;20.90;96.40;;;;;;5030500;28;20696;-50
2021/06/10 04:45:14;;;;;;;22.03;20.00;;;21.00;96.40;;;;;;5030047;28;20666;-51
2021/06/10 04:47:41;;;;;;;21.87;19.67;;;21.00;96.40;;;;;;5030248;28;20709;-50
2021/06/10 04:50:10;;;;;;;20.47;18.73;;;21.00;96.40;;;;;;5030438;28;20630;-50
2021/06/10 04:52:36;;;;;;;19.70;17.87;;;21.00;96.40;;;;;;5030430;28;20635;-50
2021/06/10 04:55:06;;;;;;;18.33;16.50;;;21.10;96.40;;;;;;5030692;28;20689;-51
2021/06/10 04:57:33;;;;;;;22.23;20.47;;;21.10;96.20;;;;;;5029633;28;20619;-51
2021/06/10 05:00:00;;;;;;;20.67;18.67;;;21.20;96.30;;;;;;5031650;28;20866;-50
2021/06/10 05:02:27;;;;;;;23.00;20.90;;;21.20;96.30;;;;;;5040891;28;20619;-50
2021/06/10 05:04:54;;;;;;;21.70;19.70;;;21.20;96.40;;;;;;5030030;28;20710;-51
2021/06/10 05:07:20;;;;;;;21.20;19.40;;;21.20;96.50;;;;;;5032052;28;20650;-49
2021/06/10 05:09:47;;;;;;;20.30;18.60;;;21.20;96.40;;;;;;5042896;28;20698;-50
2021/06/10 05:12:15;;;;;;;21.13;19.07;;;21.20;96.60;;;;;;5030272;28;21176;-50
2021/06/10 05:14:42;;;;;;;19.60;18.00;;;21.20;96.60;;;;;;5030579;28;20685;-50
2021/06/10 05:17:09;;;;;;;21.40;19.50;;;21.20;96.60;;;;;;5049703;28;21162;-49
2021/06/10 05:19:36;;;;;;;20.80;19.00;;;21.20;96.60;;;;;;5049242;28;20642;-50
2021/06/10 05:22:03;;;;;;;21.57;19.57;;;21.20;96.60;;;;;;5036603;28;20688;-50
2021/06/10 05:24:30;;;;;;;22.50;20.77;;;21.20;96.30;;;;;;5029455;28;20973;-51
2021/06/10 05:26:56;;;;;;;25.20;22.97;;;21.20;96.50;;;;;;5029485;28;21179;-51
2021/06/10 05:29:24;;;;;;;23.27;21.20;;;21.10;96.70;;;;;;5029384;28;20650;-50
2021/06/10 05:31:51;;;;;;;22.10;20.30;;;21.20;96.70;;;;;;5029739;28;21139;-50
2021/06/10 05:34:18;;;;;;;22.10;20.20;;;21.20;96.70;;;;;;5030103;28;21203;-52
2021/06/10 05:36:45;;;;;;;23.23;21.23;;;21.20;96.70;;;;;;5029117;28;20690;-49
2021/06/10 05:39:11;;;;;;;21.30;19.50;;;21.10;96.60;;;;;;5029703;28;20705;-50
2021/06/10 05:41:38;;;;;;;22.67;20.77;;;21.10;96.90;;;;;;5029814;28;20677;-49
2021/06/10 05:44:05;;;;;;;21.20;19.40;;;21.10;96.80;;;;;;5030110;28;20655;-51
2021/06/10 05:46:33;;;;;;;24.23;22.27;;;21.20;96.90;;;;;;5029503;28;21207;-51
2021/06/10 05:49:00;;;;;;;23.63;21.53;;;21.30;96.80;;;;;;5030489;28;20679;-49
2021/06/10 05:51:27;;;;;;;23.53;21.47;;;21.40;96.70;;;;;;5030046;28;20627;-50
2021/06/10 05:53:53;;;;;;;24.17;22.10;;;21.40;96.60;;;;;;5029581;28;22006;-49
2021/06/10 05:56:20;;;;;;;23.50;21.43;;;21.50;96.50;;;;;;5032585;28;20671;-50
2021/06/10 05:58:47;;;;;;;24.17;22.13;;;21.60;96.40;;;;;;5033416;28;20708;-50
2021/06/10 06:01:14;;;;;;;22.70;20.80;;;21.60;96.30;;;;;;5033523;28;21009;-50
2021/06/10 06:03:42;;;;;;;23.57;21.17;;;21.60;96.30;;;;;;5033580;28;20657;-50
2021/06/10 06:06:09;;;;;;;24.20;22.20;;;21.60;96.10;;;;;;5033384;28;20701;-50
2021/06/10 06:08:35;;;;;;;23.60;21.40;;;21.40;96.10;;;;;;5033185;28;20793;-50
2021/06/10 06:11:02;;;;;;;23.80;21.80;;;21.40;96.30;;;;;;5033512;28;21183;-50
2021/06/10 06:13:43;;;;;;;24.30;22.00;;;21.30;96.50;;;;;;5033755;28;20627;-49
2021/06/10 06:16:10;;;;;;;23.63;21.73;;;21.30;96.70;;;;;;5033745;28;20631;-50
2021/06/10 06:18:37;;;;;;;22.10;20.20;;;21.40;96.80;;;;;;5033184;28;20829;-49
2021/06/10 06:21:06;;;;;;;23.37;21.47;;;21.50;96.80;;;;;;5033041;28;20665;-50
2021/06/10 06:23:32;;;;;;;24.00;21.50;;;21.60;96.60;;;;;;5028110;28;20624;-50
2021/06/10 06:26:00;;;;;;;23.47;21.60;;;21.70;96.50;;;;;;5013599;28;20663;-50
2021/06/10 06:28:26;;;;;;;23.73;21.53;;;21.70;96.30;;;;;;5013162;28;20640;-51
2021/06/10 06:30:53;;;;;;;22.57;20.37;;;21.90;96.30;;;;;;5013488;28;20635;-51
2021/06/10 06:33:20;;;;;;;21.40;19.60;;;21.90;96.10;;;;;;5013642;28;20623;-51
2021/06/10 06:35:47;;;;;;;19.63;18.00;;;22.00;95.80;;;;;;5013148;28;20733;-50
2021/06/10 06:38:15;;;;;;;22.20;20.30;;;22.00;95.70;;;;;;5013364;28;20702;-51
2021/06/10 06:40:41;;;;;;;22.90;21.00;;;22.00;95.60;;;;;;5013528;28;20632;-51
2021/06/10 06:43:11;;;;;;;20.87;18.00;;;22.00;95.60;;;;;;5013424;28;20632;-51
2021/06/10 06:45:38;;;;;;;22.57;20.60;;;22.00;95.70;;;;;;5012516;28;20663;-51
2021/06/10 06:48:05;;;;;;;22.10;20.07;;;22.00;95.80;;;;;;5012571;28;20725;-48
2021/06/10 06:50:32;;;;;;;22.07;20.10;;;22.00;95.90;;;;;;5010490;28;20689;-49
2021/06/10 06:52:59;;;;;;;22.17;20.07;;;22.10;96.10;;;;;;5031921;28;20646;-49
2021/06/10 06:55:27;;;;;;;19.47;17.13;;;22.20;95.80;;;;;;5030558;28;20735;-48
2021/06/10 06:57:54;;;;;;;23.47;21.67;;;22.30;95.40;;;;;;5032155;28;20631;-49
2021/06/10 07:00:21;;;;;;;22.60;20.70;;;22.50;95.10;;;;;;5032943;28;20631;-49
2021/06/10 07:02:48;;;;;;;21.57;19.67;;;22.50;95.00;;;;;;5032683;28;20676;-49
2021/06/10 07:05:15;;;;;;;22.23;20.30;;;22.50;94.90;;;;;;5032459;28;21140;-49
2021/06/10 07:07:42;;;;;;;20.30;18.60;;;22.50;95.00;;;;;;5032011;28;21049;-48
2021/06/10 07:10:10;;;;;;;20.83;19.10;;;22.50;95.00;;;;;;5032470;28;20630;-49
2021/06/10 07:12:38;;;;;;;20.93;18.50;;;22.60;94.80;;;;;;5032509;28;20665;-49
2021/06/10 07:15:06;;;;;;;19.37;17.60;;;22.70;94.60;;;;;;5032380;28;20663;-49
2021/06/10 07:17:33;;;;;;;21.60;19.70;;;22.70;94.40;;;;;;5031888;28;21209;-49
2021/06/10 07:20:01;;;;;;;20.17;18.47;;;22.80;94.10;;;;;;5031574;28;20635;-50
2021/06/10 07:22:30;;;;;;;19.70;18.10;;;22.90;93.90;;;;;;5032617;28;20654;-49
2021/06/10 07:24:57;;;;;;;19.37;17.60;;;23.00;93.90;;;;;;5030574;28;21076;-49
2021/06/10 07:27:24;;;;;;;19.13;17.53;;;23.00;93.80;;;;;;5028902;28;20659;-49
2021/06/10 07:29:53;;;;;;;21.53;19.50;;;23.20;93.40;;;;;;5030405;28;20635;-50
2021/06/10 07:32:20;;;;;;;22.60;20.83;;;23.30;93.10;;;;;;5049456;28;20630;-50
2021/06/10 07:34:47;;;;;;;21.20;19.10;;;23.40;92.40;;;;;;5051096;28;20650;-50
2021/06/10 07:37:14;;;;;;;18.93;17.30;;;23.50;92.30;;;;;;5051465;28;21170;-49
2021/06/10 07:39:40;;;;;;;19.00;17.50;;;23.60;92.30;;;;;;5051404;28;20634;-49
2021/06/10 07:42:08;;;;;;;19.70;18.00;;;23.70;92.20;;;;;;5051675;28;20629;-49
2021/06/10 07:44:35;;;;;;;17.63;16.23;;;23.90;91.70;;;;;;5036878;28;20663;-49
2021/06/10 07:47:04;;;;;;;19.53;17.77;;;24.10;91.30;;;;;;5031055;28;20756;-49
2021/06/10 07:49:32;;;;;;;17.77;16.27;;;24.30;90.90;;;;;;5029219;28;20685;-49
2021/06/10 07:51:59;;;;;;;19.20;17.20;;;24.40;90.40;;;;;;5029741;28;20746;-49
2021/06/10 07:54:26;;;;;;;19.37;17.67;;;24.40;90.40;;;;;;5030561;28;20667;-49
2021/06/10 07:56:53;;;;;;;20.43;18.80;;;24.50;90.10;;;;;;5029867;28;20623;-50
2021/06/10 07:59:25;;;;;;;19.07;17.67;;;24.60;90.10;;;;;;5030294;28;20629;-49
2021/06/10 08:01:52;;;;;;;20.03;18.13;;;24.80;90.20;;;;;;5030009;28;21262;-49
2021/06/10 08:04:20;;;;;;;19.37;17.77;;;24.90;88.70;;;;;;5030522;28;20639;-49
2021/06/10 08:06:47;;;;;;;18.43;16.60;;;25.00;88.40;;;;;;5031297;28;20905;-49
2021/06/10 08:09:14;;;;;;;18.67;17.00;;;25.10;87.70;;;;;;5030983;28;20626;-50
2021/06/10 08:11:41;;;;;;;16.13;14.83;;;25.10;87.50;;;;;;5030943;28;20619;-48
2021/06/10 08:14:08;;;;;;;16.17;14.80;;;25.20;87.70;;;;;;5031041;28;20701;-50
2021/06/10 08:16:34;;;;;;;15.97;14.67;;;25.30;86.80;;;;;;5030704;28;20626;-49
2021/06/10 08:19:01;;;;;;;16.03;14.53;;;25.40;87.20;;;;;;5030397;28;21203;-50
2021/06/10 08:21:29;;;;;;;18.47;16.87;;;25.50;86.40;;;;;;5031111;28;20635;-50
2021/06/10 08:23:56;;;;;;;16.90;15.70;;;25.70;86.00;;;;;;5023442;28;20706;-50
2021/06/10 08:26:23;;;;;;;18.40;16.00;;;25.80;85.10;;;;;;5009866;28;20651;-50
2021/06/10 08:28:50;;;;;;;16.80;15.40;;;26.00;84.80;;;;;;5011518;28;21068;-50
2021/06/10 08:31:16;;;;;;;18.33;16.83;;;26.10;84.20;;;;;;5010822;28;20627;-50
2021/06/10 08:33:43;;;;;;;17.20;15.60;;;26.30;82.60;;;;;;5011498;28;20631;-49
2021/06/10 08:36:11;;;;;;;15.57;14.03;;;26.30;82.00;;;;;;5011339;28;20635;-50
2021/06/10 08:38:39;;;;;;;15.73;14.53;;;26.40;81.70;;;;;;5011090;28;20624;-50
2021/06/10 08:41:07;;;;;;;17.60;16.30;;;26.40;81.80;;;;;;5011459;28;20631;-49
2021/06/10 08:43:34;;;;;;;17.50;16.30;;;26.40;80.80;;;;;;5010919;28;20698;-49
2021/06/10 08:46:01;;;;;;;17.93;16.37;;;26.40;80.00;;;;;;5010828;28;20678;-50
2021/06/10 08:48:32;;;;;;;15.80;14.70;;;26.40;79.30;;;;;;5010302;28;21295;-50
2021/06/10 08:50:59;;;;;;;16.27;14.93;;;26.30;79.30;;;;;;5021475;28;20634;-51
2021/06/10 08:53:26;;;;;;;17.80;16.40;;;26.20;79.10;;;;;;5030500;28;20700;-50
2021/06/10 08:55:56;;;;;;;18.63;17.13;;;26.20;79.20;;;;;;5030647;28;20647;-50
2021/06/10 08:58:23;;;;;;;16.80;15.50;;;26.10;78.60;;;;;;5030533;28;20595;-51
2021/06/10 09:00:49;;;;;;;16.77;15.40;;;26.00;78.60;;;;;;5030619;28;20658;-50
2021/06/10 09:03:21;;;;;;;17.17;15.77;;;26.00;79.20;;;;;;5030342;28;20980;-49
2021/06/10 09:06:00;;;;;;;17.80;16.30;;;26.00;79.40;;;;;;5030024;28;20663;-50
2021/06/10 09:08:27;;;;;;;17.60;16.03;;;26.00;79.50;;;;;;5021502;28;20688;-50
2021/06/10 09:11:04;;;;;;;15.83;14.63;;;25.90;80.20;;;;;;5010141;28;20635;-48
2021/06/10 09:13:37;;;;;;;13.80;12.70;;;25.90;80.50;;;;;;5010846;28;20635;-49
2021/06/10 09:16:18;;;;;;;16.43;15.13;;;25.90;80.70;;;;;;5010445;28;20673;-50
2021/06/10 09:18:49;;;;;;;15.13;13.73;;;25.90;79.60;;;;;;5011509;28;20774;-50
2021/06/10 09:21:32;;;;;;;16.80;15.40;;;26.00;80.00;;;;;;5024298;28;20635;-50
2021/06/10 09:24:14;;;;;;;14.40;12.90;;;26.20;80.00;;;;;;5028352;28;21179;-51
2021/06/10 09:26:43;;;;;;;14.70;13.60;;;26.50;79.00;;;;;;5030501;28;20992;-50
2021/06/10 09:29:09;;;;;;;14.73;13.40;;;26.90;77.80;;;;;;5029067;28;20638;-51
2021/06/10 09:31:37;;;;;;;13.80;12.80;;;27.20;75.70;;;;;;5030532;28;20622;-52
2021/06/10 09:34:07;;;;;;;14.03;12.80;;;27.50;74.00;;;;;;5030158;28;20655;-51
2021/06/10 09:36:40;;;;;;;14.83;13.43;;;27.90;72.20;;;;;;5029719;28;20623;-51
2021/06/10 09:39:08;;;;;;;14.87;13.77;;;28.10;69.50;;;;;;5028466;28;21184;-50
2021/06/10 09:41:35;;;;;;;15.37;14.23;;;28.00;68.80;;;;;;5030266;28;20627;-50
2021/06/10 09:44:04;;;;;;;16.70;15.27;;;27.90;69.20;;;;;;5029396;28;20658;-51
2021/06/10 09:46:31;;;;;;;14.77;13.50;;;27.80;69.50;;;;;;5029075;28;20741;-51
2021/06/10 09:49:04;;;;;;;13.67;12.77;;;27.70;69.20;;;;;;5029833;28;20626;-49
2021/06/10 09:51:31;;;;;;;13.20;12.30;;;27.60;69.50;;;;;;5029511;28;20627;-49
2021/06/10 09:53:59;;;;;;;13.73;12.77;;;27.40;69.10;;;;;;5029981;28;20670;-50
2021/06/10 09:56:26;;;;;;;15.57;14.47;;;27.30;69.90;;;;;;5029509;28;20697;-50
2021/06/10 09:58:57;;;;;;;15.40;14.10;;;27.10;70.30;;;;;;5029363;28;20627;-49
2021/06/10 10:01:26;;;;;;;13.37;12.37;;;27.00;70.40;;;;;;5019891;28;21192;-50
2021/06/10 10:03:53;;;;;;;12.80;11.80;;;26.90;69.20;;;;;;5010331;28;20655;-49
2021/06/10 10:06:22;;;;;;;12.67;11.80;;;26.90;67.20;;;;;;5009479;28;21129;-50
2021/06/10 10:08:50;;;;;;;11.30;10.30;;;26.80;63.80;;;;;;5016072;28;20666;-52
2021/06/10 10:11:17;;;;;;;13.40;12.20;;;26.70;60.90;;;;;;5048350;28;20630;-52
2021/06/10 10:13:46;;;;;;;14.10;13.00;;;26.70;63.80;;;;;;5048913;28;20684;-52
2021/06/10 10:16:13;;;;;;;14.33;13.10;;;26.60;66.00;;;;;;5048934;28;20629;-51
2021/06/10 10:18:42;;;;;;;13.33;12.07;;;26.60;66.00;;;;;;5048982;28;20687;-52
2021/06/10 10:21:09;;;;;;;13.90;12.50;;;26.60;65.40;;;;;;5036512;28;20642;-52
2021/06/10 10:23:36;;;;;;;13.03;11.93;;;26.70;64.40;;;;;;5028980;28;20623;-52
2021/06/10 10:26:04;;;;;;;11.97;11.07;;;26.70;64.40;;;;;;5028730;28;21015;-49
2021/06/10 10:28:33;;;;;;;11.43;10.63;;;26.70;62.50;;;;;;5027689;28;20659;-50
2021/06/10 10:31:00;;;;;;;11.63;10.87;;;26.80;61.20;;;;;;5029231;28;21203;-51
2021/06/10 10:33:27;;;;;;;11.33;10.57;;;26.80;60.70;;;;;;5028937;28;20653;-50
2021/06/10 10:35:57;;;;;;;11.90;10.80;;;26.90;61.50;;;;;;5029010;28;20700;-51
2021/06/10 10:38:33;;;;;;;11.50;10.50;;;26.90;58.60;;;;;;5028782;28;20619;-50
2021/06/10 10:41:01;;;;;;;11.67;10.87;;;26.90;58.80;;;;;;5030125;28;20680;-51
2021/06/10 10:43:29;;;;;;;12.10;11.20;;;27.00;59.20;;;;;;5032049;28;20745;-51
2021/06/10 10:46:09;;;;;;;13.07;12.17;;;27.00;59.40;;;;;;5032110;28;20662;-50
2021/06/10 10:48:37;;;;;;;11.47;10.70;;;27.00;59.80;;;;;;5031966;28;20716;-50
2021/06/10 10:51:22;;;;;;;13.97;12.87;;;27.00;60.00;;;;;;5032434;28;20685;-50
2021/06/10 10:53:53;;;;;;;12.83;11.93;;;27.00;60.30;;;;;;5032366;28;20701;-50
2021/06/10 10:56:22;;;;;;;14.77;13.53;;;27.00;59.30;;;;;;5032578;28;20623;-52
2021/06/10 10:59:14;;;;;;;14.00;13.00;;;27.00;59.60;;;;;;5032063;28;21177;-50
2021/06/10 11:01:41;;;;;;;13.53;12.57;;;27.00;59.70;;;;;;5032569;28;20768;-51
2021/06/10 11:04:08;;;;;;;13.30;12.20;;;27.00;58.90;;;;;;5031682;28;20651;-52
2021/06/10 11:06:37;;;;;;;13.97;12.70;;;27.00;58.60;;;;;;5031596;28;21258;-50
2021/06/10 11:09:11;;;;;;;13.40;12.10;;;27.10;58.00;;;;;;5031857;28;20827;-52
2021/06/10 11:11:51;;;;;;;15.30;14.20;;;27.10;57.70;;;;;;5032300;28;20627;-51
2021/06/10 11:14:34;;;;;;;13.90;12.80;;;27.10;57.80;;;;;;5031299;28;20745;-51
2021/06/10 11:17:14;;;;;;;14.50;13.40;;;27.20;57.30;;;;;;5031263;28;20638;-50
2021/06/10 11:19:49;;;;;;;15.20;14.10;;;27.30;57.00;;;;;;5031754;28;20633;-52
2021/06/10 11:22:26;;;;;;;13.77;12.77;;;27.30;56.40;;;;;;5031842;28;21198;-52
2021/06/10 11:24:53;;;;;;;15.40;14.40;;;27.40;56.40;;;;;;5031445;28;20934;-51
2021/06/10 11:27:32;;;;;;;15.40;13.90;;;27.50;55.20;;;;;;5031186;28;20701;-52
2021/06/10 11:30:09;;;;;;;13.30;12.40;;;27.50;55.10;;;;;;5031459;28;21195;-51
2021/06/10 11:32:52;;;;;;;13.67;12.77;;;27.70;55.40;;;;;;5031476;28;20630;-51
2021/06/10 11:35:26;;;;;;;13.57;12.57;;;27.90;54.80;;;;;;5031339;28;20666;-51
2021/06/10 11:37:55;;;;;;;14.53;13.43;;;28.00;54.50;;;;;;5031621;28;20627;-51
2021/06/10 11:40:22;;;;;;;13.60;12.60;;;27.90;54.70;;;;;;5031676;28;20631;-49
2021/06/10 11:42:49;;;;;;;13.87;12.77;;;27.90;54.30;;;;;;5032103;28;20630;-52
2021/06/10 11:45:20;;;;;;;13.77;12.43;;;27.90;54.40;;;;;;5031799;28;21199;-51
2021/06/10 11:47:47;;;;;;;13.60;12.40;;;27.90;55.30;;;;;;5031590;28;20659;-52
2021/06/10 11:50:24;;;;;;;13.73;12.80;;;27.90;54.90;;;;;;5031114;28;21242;-50
2021/06/10 11:52:52;;;;;;;13.07;11.87;;;28.00;53.00;;;;;;5031486;28;21179;-51
2021/06/10 11:55:21;;;;;;;13.50;12.60;;;28.00;53.60;;;;;;5031255;28;20659;-49
2021/06/10 11:57:55;;;;;;;13.47;12.40;;;28.00;51.70;;;;;;5031357;28;20677;-51
2021/06/10 12:00:29;;;;;;;13.80;12.80;;;28.20;50.50;;;;;;5030800;28;20634;-52
2021/06/10 12:02:57;;;;;;;14.43;13.33;;;28.30;50.70;;;;;;5031423;28;21191;-52
2021/06/10 12:05:24;;;;;;;13.50;12.50;;;28.30;50.40;;;;;;5031087;28;20655;-52
2021/06/10 12:07:51;;;;;;;13.60;12.70;;;28.30;49.60;;;;;;5030646;28;20666;-52
2021/06/10 12:10:20;;;;;;;14.53;13.23;;;28.40;49.70;;;;;;5031330;28;20685;-51
2021/06/10 12:12:52;;;;;;;13.60;12.57;;;28.40;49.90;;;;;;5031425;28;21257;-51
2021/06/10 12:15:34;;;;;;;12.30;11.30;;;28.30;49.80;;;;;;5031771;28;20673;-53
2021/06/10 12:18:01;;;;;;;14.60;13.50;;;28.20;50.90;;;;;;5031094;28;20633;-51
2021/06/10 12:20:29;;;;;;;12.33;11.43;;;28.10;50.90;;;;;;5031339;28;20627;-51
2021/06/10 12:22:57;;;;;;;13.10;12.10;;;28.00;51.20;;;;;;5031683;28;21038;-50
2021/06/10 12:25:25;;;;;;;12.83;11.83;;;27.90;51.20;;;;;;5031045;28;20647;-52
2021/06/10 12:27:53;;;;;;;11.63;10.83;;;27.90;51.20;;;;;;5030985;28;21064;-49
2021/06/10 12:30:29;;;;;;;14.23;13.07;;;27.90;51.10;;;;;;5031108;28;20627;-50
2021/06/10 12:33:16;;;;;;;13.73;12.67;;;27.90;51.40;;;;;;5030739;28;20626;-51
2021/06/10 12:35:44;;;;;;;12.60;11.40;;;27.90;50.60;;;;;;5031104;28;20662;-53